Accueil
METAR-TAF:

METAR-TAF

Aéroports :

Berne, Suisse

Aéroport international de Berne

latitude: 46-55N, longitude: 007-30E, altitude: 505 m

Observation

Le bulletin a été fait il y a 14 minutes, à 19:20 UTC
Vent 1 kt de direction variable
Température 18°C
Humidité 52%
Pression 1022 hPa
Visibilité 10 km ou plus
Quelques nuages à une hauteur de 4500 ft

METAR: LSZB 241920Z VRB01KT 9999 FEW045 18/08 Q1022 NOSIG

Heure: 21:34 (19:34 UTC)

Prévision

Le bulletin a été fait il y a 5 heures et 9 minutes, à 14:25 UTC
Prévision valable du 24 à 15 UTC au 24 à 24 UTC
Vent 5 kt de nord-ouest
Visibilité 10 km ou plus
Nuages épars à une hauteur de 5000 ft
Temporairement
du 24 à 15 UTC au 24 à 24 UTC
Vent 8 kt de nord-est

TAF: LSZB 241425Z 2415/2424 32005KT 9999 SCT050 TEMPO 2415/2424 04008KT

Observations et prévisions météorologiques de plus de 4000 aéroports (messages METAR et TAF).

Les stations disponibles sont représentées par des disques jaunes et rouges sur la carte.

Passer la souris dessus pour voir le nom de la station.

Cliquer dessus pour voir les observations et prévisions météorologiques.

Pour changer de carte: cliquez sur les boutons verts avec une croix noire pour zoomer, sur le bouton vert avec un tiret pour effectuer un zoom arrière, ou sur les flèches vertes pour les cartes adjacentes.


METAR-TAF: